Time,TemperatureF,DewpointF,PressureIn,WindDirection,WindDirectionDegrees,WindSpeedMPH,WindSpeedGustMPH,Humidity,HourlyPrecipIn,Conditions,Clouds,dailyrainin,SoftwareType,DateUTC
2013-11-28 00:12:00,17.0,10.0,30.01,WSW,240,0.0,3.0,74,0.00,,,0.05,,2013-11-28 05:12:00,
2013-11-28 00:22:00,18.0,11.0,30.02,SW,224,0.0,3.0,73,0.00,,,0.05,,2013-11-28 05:22:00,
2013-11-28 00:43:00,17.0,10.0,30.02,NW,326,0.0,3.0,74,0.00,,,0.05,,2013-11-28 05:43:00,
2013-11-28 00:53:00,17.0,10.0,30.02,WNW,283,0.0,6.0,74,0.00,,,0.05,,2013-11-28 05:53:00,
2013-11-28 01:12:00,17.0,11.0,30.02,WSW,245,0.0,3.0,76,0.00,,,0.05,,2013-11-28 06:12:00,
2013-11-28 01:22:00,17.0,11.0,30.02,WSW,245,0.0,3.0,76,0.00,,,0.05,,2013-11-28 06:22:00,
2013-11-28 01:42:00,17.0,11.0,30.02,WSW,239,1.0,6.0,78,0.00,,,0.05,,2013-11-28 06:42:00,
2013-11-28 01:52:00,17.0,12.0,30.03,South,188,2.0,12.0,79,0.00,,,0.05,,2013-11-28 06:52:00,
2013-11-28 02:11:00,17.0,12.0,30.03,West,271,3.0,7.0,79,0.00,,,0.05,,2013-11-28 07:11:00,
2013-11-28 02:22:00,16.0,11.0,30.03,WSW,241,2.0,9.0,80,0.00,,,0.05,,2013-11-28 07:22:00,
2013-11-28 02:42:00,16.0,11.0,30.04,West,279,2.0,12.0,80,0.00,,,0.00,,2013-11-28 07:42:00,
2013-11-28 02:52:00,16.0,11.0,30.05,SW,233,3.0,10.0,82,0.00,,,0.00,,2013-11-28 07:52:00,
2013-11-28 03:11:00,16.0,11.0,30.06,WSW,258,3.0,13.0,82,0.00,,,0.00,,2013-11-28 08:11:00,
2013-11-28 03:22:00,16.0,12.0,30.06,West,266,2.0,11.0,83,0.00,,,0.00,,2013-11-28 08:22:00,
2013-11-28 03:42:00,16.0,11.0,30.06,West,274,3.0,11.0,82,0.00,,,0.00,,2013-11-28 08:42:00,
2013-11-28 03:53:00,16.0,12.0,30.06,SW,226,3.0,14.0,83,0.00,,,0.00,,2013-11-28 08:53:00,
2013-11-28 04:22:00,16.0,12.0,30.08,SW,221,3.0,13.0,84,0.00,,,0.00,,2013-11-28 09:22:00,
2013-11-28 04:43:00,16.0,12.0,30.08,SW,224,1.0,9.0,83,0.00,,,0.00,,2013-11-28 09:43:00,
2013-11-28 04:53:00,16.0,11.0,30.08,West,261,1.0,8.0,82,0.00,,,0.00,,2013-11-28 09:53:00,
2013-11-28 05:23:00,17.0,12.0,30.08,West,270,2.0,8.0,82,0.00,,,0.00,,2013-11-28 10:23:00,
2013-11-28 05:43:00,17.0,12.0,30.09,West,275,1.0,8.0,81,0.00,,,0.00,,2013-11-28 10:43:00,
2013-11-28 05:52:00,17.0,12.0,30.09,WSW,239,1.0,8.0,79,0.00,,,0.00,,2013-11-28 10:52:00,
2013-11-28 06:12:00,17.0,12.0,30.10,WSW,245,2.0,8.0,79,0.00,,,0.00,,2013-11-28 11:12:00,
2013-11-28 06:22:00,17.0,11.0,30.11,WSW,255,1.0,6.0,78,0.00,,,0.00,,2013-11-28 11:22:00,
2013-11-28 06:42:00,17.0,11.0,30.11,SW,228,1.0,5.0,78,0.00,,,0.00,,2013-11-28 11:42:00,
2013-11-28 06:52:00,18.0,12.0,30.12,SW,231,2.0,10.0,76,0.00,,,0.00,,2013-11-28 11:52:00,
2013-11-28 07:12:00,19.0,10.0,30.12,West,280,0.0,5.0,68,0.00,,,0.00,,2013-11-28 12:12:00,
2013-11-28 07:42:00,21.0,10.0,30.13,SSW,192,0.0,3.0,61,0.00,,,0.00,,2013-11-28 12:42:00,
2013-11-28 08:22:00,22.0,6.0,30.15,WSW,255,6.0,11.0,50,0.00,,,0.00,,2013-11-28 13:22:00,
2013-11-28 08:42:00,24.0,5.0,30.16,SSW,196,3.0,10.0,43,0.00,,,0.00,,2013-11-28 13:42:00,
2013-11-28 08:52:00,25.0,5.0,30.16,SW,232,2.0,6.0,42,0.00,,,0.00,,2013-11-28 13:52:00,
2013-11-28 09:11:00,25.0,4.0,30.16,West,277,3.0,10.0,40,0.00,,,0.00,,2013-11-28 14:11:00,
2013-11-28 09:42:00,28.0,3.0,30.18,WSW,250,1.0,8.0,33,0.00,,,0.00,,2013-11-28 14:42:00,
2013-11-28 09:52:00,30.0,12.0,30.20,ESE,116,0.0,0.0,46,0.00,,,0.00,,2013-11-28 14:52:00,
2013-11-28 10:12:00,31.0,12.0,30.21,WSW,253,0.0,2.0,45,0.00,,,0.00,,2013-11-28 15:12:00,
2013-11-28 10:22:00,31.0,11.0,30.22,ENE,70,1.0,4.0,43,0.00,,,0.00,,2013-11-28 15:22:00,
2013-11-28 10:44:00,31.0,12.0,30.22,SSE,160,0.0,3.0,45,0.00,,,0.00,,2013-11-28 15:44:00,
2013-11-28 10:54:00,32.0,14.0,30.22,ENE,68,0.0,2.0,47,0.00,,,0.00,,2013-11-28 15:54:00,
2013-11-28 11:13:00,34.0,15.0,30.22,NE,34,0.0,3.0,46,0.00,,,0.00,,2013-11-28 16:13:00,
2013-11-28 11:23:00,34.0,15.0,30.22,NE,34,0.0,3.0,46,0.00,,,0.00,,2013-11-28 16:23:00,
2013-11-28 11:43:00,33.0,10.0,30.22,ENE,58,2.0,3.0,37,0.00,,,0.00,,2013-11-28 16:43:00,
2013-11-28 11:54:00,34.0,12.0,30.22,North,359,0.0,3.0,40,0.00,,,0.00,,2013-11-28 16:54:00,
2013-11-28 12:12:00,36.0,14.0,30.22,NE,40,0.0,2.0,40,0.00,,,0.00,,2013-11-28 17:12:00,
2013-11-28 12:23:00,36.0,10.0,30.22,NNW,347,0.0,3.0,34,0.00,,,0.00,,2013-11-28 17:23:00,
2013-11-28 12:42:00,37.0,14.0,30.22,NE,44,1.0,3.0,38,0.00,,,0.00,,2013-11-28 17:42:00,
2013-11-28 12:52:00,38.0,19.0,30.21,NNE,32,2.0,4.0,45,0.00,,,0.00,,2013-11-28 17:52:00,
2013-11-28 13:12:00,38.0,18.0,30.22,ESE,116,0.0,4.0,44,0.00,,,0.00,,2013-11-28 18:12:00,
2013-11-28 13:22:00,38.0,18.0,30.21,NE,36,1.0,4.0,44,0.00,,,0.00,,2013-11-28 18:22:00,
2013-11-28 13:42:00,38.0,19.0,30.21,NE,45,0.0,4.0,46,0.00,,,0.00,,2013-11-28 18:42:00,
2013-11-28 13:52:00,39.0,21.0,30.20,NE,49,2.0,5.0,48,0.00,,,0.00,,2013-11-28 18:52:00,
2013-11-28 14:11:00,39.0,20.0,30.20,NE,48,1.0,4.0,47,0.00,,,0.00,,2013-11-28 19:11:00,
2013-11-28 14:22:00,40.0,21.0,30.20,NNE,32,1.0,3.0,46,0.00,,,0.00,,2013-11-28 19:22:00,
2013-11-28 14:42:00,39.0,20.0,30.20,NNE,30,2.0,4.0,46,0.00,,,0.00,,2013-11-28 19:42:00,
2013-11-28 14:52:00,39.0,20.0,30.20,WNW,293,1.0,5.0,47,0.00,,,0.00,,2013-11-28 19:52:00,
2013-11-28 15:12:00,39.0,20.0,30.21,NNE,18,0.0,3.0,47,0.00,,,0.00,,2013-11-28 20:12:00,
2013-11-28 15:22:00,39.0,20.0,30.21,NE,37,0.0,3.0,47,0.00,,,0.00,,2013-11-28 20:22:00,
2013-11-28 15:52:00,38.0,20.0,30.22,NW,310,0.0,2.0,48,0.00,,,0.00,,2013-11-28 20:52:00,
2013-11-28 16:11:00,38.0,21.0,30.22,NE,48,0.0,2.0,49,0.00,,,0.00,,2013-11-28 21:11:00,
2013-11-28 16:21:00,37.0,19.0,30.22,NE,41,1.0,2.0,48,0.00,,,0.00,,2013-11-28 21:21:00,
2013-11-28 16:43:00,37.0,20.0,30.22,NE,55,0.0,2.0,49,0.00,,,0.00,,2013-11-28 21:43:00,
2013-11-28 16:53:00,36.0,19.0,30.23,NE,46,1.0,2.0,49,0.00,,,0.00,,2013-11-28 21:53:00,
2013-11-28 17:13:00,36.0,19.0,30.23,NE,53,0.0,1.0,50,0.00,,,0.00,,2013-11-28 22:13:00,
2013-11-28 17:23:00,35.0,19.0,30.23,NE,49,0.0,0.0,51,0.00,,,0.00,,2013-11-28 22:23:00,
2013-11-28 17:42:00,35.0,19.0,30.24,NNE,30,0.0,0.0,51,0.00,,,0.00,,2013-11-28 22:42:00,
2013-11-28 17:53:00,34.0,19.0,30.24,NNE,30,0.0,0.0,53,0.00,,,0.00,,2013-11-28 22:53:00,
2013-11-28 18:12:00,33.0,18.0,30.25,NNE,31,0.0,0.0,53,0.00,,,0.00,,2013-11-28 23:12:00,
2013-11-28 18:22:00,33.0,18.0,30.25,NNE,31,0.0,0.0,54,0.00,,,0.00,,2013-11-28 23:22:00,
2013-11-28 18:42:00,33.0,19.0,30.26,NNE,32,0.0,0.0,55,0.00,,,0.00,,2013-11-28 23:42:00,
2013-11-28 18:52:00,33.0,19.0,30.26,NNE,32,0.0,0.0,55,0.00,,,0.00,,2013-11-28 23:52:00,
2013-11-28 19:11:00,33.0,19.0,30.27,SSW,200,2.0,4.0,57,0.00,,,0.00,,2013-11-29 00:11:00,
2013-11-28 19:22:00,32.0,19.0,30.27,SSW,210,1.0,4.0,57,0.00,,,0.00,,2013-11-29 00:22:00,
2013-11-28 19:42:00,33.0,19.0,30.27,WSW,248,0.0,2.0,55,0.00,,,0.00,,2013-11-29 00:42:00,
2013-11-28 19:52:00,33.0,19.0,30.27,NE,51,0.0,1.0,55,0.00,,,0.00,,2013-11-29 00:52:00,
2013-11-28 20:12:00,32.0,19.0,30.28,SSW,207,0.0,2.0,58,0.00,,,0.00,,2013-11-29 01:12:00,
2013-11-28 20:22:00,32.0,19.0,30.28,SSW,211,0.0,2.0,59,0.00,,,0.00,,2013-11-29 01:22:00,
2013-11-28 20:42:00,31.0,18.0,30.28,SSW,206,0.0,4.0,59,0.00,,,0.00,,2013-11-29 01:42:00,
2013-11-28 20:52:00,31.0,19.0,30.29,SW,215,0.0,0.0,61,0.00,,,0.00,,2013-11-29 01:52:00,
2013-11-28 21:12:00,31.0,19.0,30.29,SW,221,0.0,2.0,61,0.00,,,0.00,,2013-11-29 02:12:00,
2013-11-28 21:22:00,31.0,19.0,30.29,SSW,205,0.0,2.0,61,0.00,,,0.00,,2013-11-29 02:22:00,
2013-11-28 21:42:00,31.0,19.0,30.29,SSW,203,0.0,2.0,61,0.00,,,0.00,,2013-11-29 02:42:00,
2013-11-28 21:52:00,31.0,19.0,30.29,SSW,207,0.0,1.0,61,0.00,,,0.00,,2013-11-29 02:52:00,
2013-11-28 22:22:00,31.0,18.0,30.29,SW,231,0.0,0.0,58,0.00,,,0.00,,2013-11-29 03:22:00,
2013-11-28 22:43:00,31.0,16.0,30.29,South,186,0.0,2.0,54,0.00,,,0.00,,2013-11-29 03:43:00,
2013-11-28 22:53:00,31.0,16.0,30.29,SW,236,0.0,1.0,53,0.00,,,0.00,,2013-11-29 03:53:00,
2013-11-28 23:23:00,31.0,16.0,30.29,SSW,203,0.0,2.0,54,0.00,,,0.00,,2013-11-29 04:23:00,
2013-11-28 23:43:00,32.0,17.0,30.29,West,259,0.0,-999.0,53,-99.99,,,-99.99,,2013-11-29 04:43:00,
2013-11-28 23:52:00,31.0,17.0,30.29,SSW,199,1.0,5.0,55,0.00,,,0.00,,2013-11-29 04:52:00,